sensor_id;sensor_type;location;lat;lon;timestamp;pressure;altitude;pressure_sealevel;temperature;humidity
23176;BME280;19910;42.652;23.332;2022-08-26T00:01:13;94295.34;;;18.77;74.35
23176;BME280;19910;42.652;23.332;2022-08-26T00:03:41;94291.84;;;18.84;74.13
23176;BME280;19910;42.652;23.332;2022-08-26T00:06:08;94288.34;;;18.90;74.35
23176;BME280;19910;42.652;23.332;2022-08-26T00:08:36;94290.66;;;18.81;78.28
23176;BME280;19910;42.652;23.332;2022-08-26T00:11:03;94289.47;;;18.75;77.78
23176;BME280;19910;42.652;23.332;2022-08-26T00:13:30;94290.63;;;18.67;78.51
23176;BME280;19910;42.652;23.332;2022-08-26T00:15:57;94287.06;;;18.63;79.31
23176;BME280;19910;42.652;23.332;2022-08-26T00:18:25;94298.41;;;18.58;78.95
23176;BME280;19910;42.652;23.332;2022-08-26T00:20:52;94286.69;;;18.61;78.53
23176;BME280;19910;42.652;23.332;2022-08-26T00:23:19;94282.34;;;18.60;78.68
23176;BME280;19910;42.652;23.332;2022-08-26T00:25:48;94286.69;;;18.61;78.63
23176;BME280;19910;42.652;23.332;2022-08-26T00:28:15;94282.41;;;18.67;79.39
23176;BME280;19910;42.652;23.332;2022-08-26T00:30:42;94281.56;;;18.56;78.89
23176;BME280;19910;42.652;23.332;2022-08-26T00:33:12;94276.91;;;18.67;77.36
23176;BME280;19910;42.652;23.332;2022-08-26T00:35:39;94275.34;;;18.73;77.76
23176;BME280;19910;42.652;23.332;2022-08-26T00:38:06;94278.88;;;18.73;76.27
23176;BME280;19910;42.652;23.332;2022-08-26T00:40:35;94271.81;;;18.76;75.35
23176;BME280;19910;42.652;23.332;2022-08-26T00:43:05;94279.66;;;18.67;77.29
23176;BME280;19910;42.652;23.332;2022-08-26T00:45:39;94274.50;;;18.55;77.08
23176;BME280;19910;42.652;23.332;2022-08-26T00:48:08;94274.09;;;18.53;76.99
23176;BME280;19910;42.652;23.332;2022-08-26T00:50:39;94272.09;;;18.50;77.53
23176;BME280;19910;42.652;23.332;2022-08-26T00:53:09;94274.84;;;18.50;76.25
23176;BME280;19910;42.652;23.332;2022-08-26T00:55:47;94283.16;;;18.60;74.89
23176;BME280;19910;42.652;23.332;2022-08-26T00:58:17;94285.53;;;18.69;74.53
23176;BME280;19910;42.652;23.332;2022-08-26T01:00:44;94285.59;;;18.94;70.83
23176;BME280;19910;42.652;23.332;2022-08-26T01:03:11;94280.44;;;18.67;75.93
23176;BME280;19910;42.652;23.332;2022-08-26T01:05:39;94277.34;;;18.83;74.31
23176;BME280;19910;42.652;23.332;2022-08-26T01:08:06;94270.31;;;18.96;74.56
23176;BME280;19910;42.652;23.332;2022-08-26T01:10:33;94269.91;;;18.91;76.43
23176;BME280;19910;42.652;23.332;2022-08-26T01:13:02;94267.16;;;18.94;75.98
23176;BME280;19910;42.652;23.332;2022-08-26T01:15:36;94267.16;;;18.87;76.25
23176;BME280;19910;42.652;23.332;2022-08-26T01:18:06;94267.09;;;18.66;76.56
23176;BME280;19910;42.652;23.332;2022-08-26T01:20:39;94271.06;;;18.72;76.10
23176;BME280;19910;42.652;23.332;2022-08-26T01:23:10;94264.00;;;18.78;78.01
23176;BME280;19910;42.652;23.332;2022-08-26T01:25:40;94269.09;;;18.76;77.59
23176;BME280;19910;42.652;23.332;2022-08-26T01:28:13;94260.03;;;18.65;77.17
23176;BME280;19910;42.652;23.332;2022-08-26T01:30:42;94274.97;;;18.71;76.78
23176;BME280;19910;42.652;23.332;2022-08-26T01:33:14;94263.56;;;18.72;76.50
23176;BME280;19910;42.652;23.332;2022-08-26T01:35:43;94268.69;;;18.74;76.15
23176;BME280;19910;42.652;23.332;2022-08-26T01:38:12;94268.69;;;18.77;76.87
23176;BME280;19910;42.652;23.332;2022-08-26T01:40:40;94267.13;;;18.80;76.00
23176;BME280;19910;42.652;23.332;2022-08-26T01:43:12;94260.09;;;18.86;75.54
23176;BME280;19910;42.652;23.332;2022-08-26T01:45:41;94260.88;;;18.83;75.27
23176;BME280;19910;42.652;23.332;2022-08-26T01:48:14;94262.06;;;18.89;75.16
23176;BME280;19910;42.652;23.332;2022-08-26T01:50:42;94268.34;;;18.93;74.94
23176;BME280;19910;42.652;23.332;2022-08-26T01:53:14;94266.00;;;18.95;75.03
23176;BME280;19910;42.652;23.332;2022-08-26T01:55:45;94262.47;;;18.98;74.36
23176;BME280;19910;42.652;23.332;2022-08-26T01:58:17;94266.41;;;19.04;73.86
23176;BME280;19910;42.652;23.332;2022-08-26T02:00:46;94261.31;;;19.06;73.89
23176;BME280;19910;42.652;23.332;2022-08-26T02:03:14;94270.72;;;19.05;74.08
23176;BME280;19910;42.652;23.332;2022-08-26T02:05:42;94264.44;;;19.08;73.81
23176;BME280;19910;42.652;23.332;2022-08-26T02:08:10;94266.00;;;19.02;74.71
23176;BME280;19910;42.652;23.332;2022-08-26T02:10:39;94261.69;;;18.98;75.12
23176;BME280;19910;42.652;23.332;2022-08-26T02:13:07;94260.09;;;19.00;75.37
23176;BME280;19910;42.652;23.332;2022-08-26T02:15:34;94269.13;;;18.90;78.48
23176;BME280;19910;42.652;23.332;2022-08-26T02:18:02;94269.50;;;18.85;77.63
23176;BME280;19910;42.652;23.332;2022-08-26T02:20:30;94267.16;;;18.87;76.85
23176;BME280;19910;42.652;23.332;2022-08-26T02:22:57;94256.16;;;18.87;77.54
23176;BME280;19910;42.652;23.332;2022-08-26T02:25:28;94256.19;;;18.84;78.51
23176;BME280;19910;42.652;23.332;2022-08-26T02:27:58;94262.44;;;18.77;78.19
23176;BME280;19910;42.652;23.332;2022-08-26T02:30:27;94257.72;;;18.81;77.45
23176;BME280;19910;42.652;23.332;2022-08-26T02:32:57;94253.81;;;18.82;77.74
23176;BME280;19910;42.652;23.332;2022-08-26T02:35:24;94260.47;;;18.88;77.73
23176;BME280;19910;42.652;23.332;2022-08-26T02:37:52;94258.13;;;18.87;77.85
23176;BME280;19910;42.652;23.332;2022-08-26T02:40:22;94259.31;;;18.89;77.32
23176;BME280;19910;42.652;23.332;2022-08-26T02:42:49;94259.31;;;18.89;76.88
23176;BME280;19910;42.652;23.332;2022-08-26T02:45:18;94253.06;;;18.96;77.42
23176;BME280;19910;42.652;23.332;2022-08-26T02:47:46;94264.84;;;19.07;77.34
23176;BME280;19910;42.652;23.332;2022-08-26T02:50:13;94255.41;;;18.97;77.75
23176;BME280;19910;42.652;23.332;2022-08-26T02:52:40;94259.34;;;18.96;77.61
23176;BME280;19910;42.652;23.332;2022-08-26T02:55:07;94255.38;;;18.87;76.66
23176;BME280;19910;42.652;23.332;2022-08-26T02:57:34;94258.56;;;18.99;76.37
23176;BME280;19910;42.652;23.332;2022-08-26T03:00:01;94267.56;;;19.03;76.36
23176;BME280;19910;42.652;23.332;2022-08-26T03:02:29;94270.31;;;19.03;78.73
23176;BME280;19910;42.652;23.332;2022-08-26T03:04:56;94274.25;;;19.02;78.93
23176;BME280;19910;42.652;23.332;2022-08-26T03:07:23;94262.47;;;18.98;78.25
23176;BME280;19910;42.652;23.332;2022-08-26T03:09:50;94269.50;;;18.85;77.55
23176;BME280;19910;42.652;23.332;2022-08-26T03:12:17;94264.75;;;18.75;78.38
23176;BME280;19910;42.652;23.332;2022-08-26T03:14:44;94272.59;;;18.73;77.50
23176;BME280;19910;42.652;23.332;2022-08-26T03:17:11;94262.78;;;18.65;75.78
23176;BME280;19910;42.652;23.332;2022-08-26T03:19:39;94268.28;;;18.65;75.65
23176;BME280;19910;42.652;23.332;2022-08-26T03:22:07;94264.72;;;18.61;75.64
23176;BME280;19910;42.652;23.332;2022-08-26T03:24:34;94260.06;;;18.72;75.27
23176;BME280;19910;42.652;23.332;2022-08-26T03:27:00;94272.63;;;18.80;75.40
23176;BME280;19910;42.652;23.332;2022-08-26T03:29:27;94265.97;;;18.88;75.12
23176;BME280;19910;42.652;23.332;2022-08-26T03:32:12;94275.03;;;18.99;74.97
23176;BME280;19910;42.652;23.332;2022-08-26T03:34:42;94266.78;;;19.06;75.37
23176;BME280;19910;42.652;23.332;2022-08-26T03:37:09;94269.53;;;19.06;76.73
23176;BME280;19910;42.652;23.332;2022-08-26T03:39:36;94264.81;;;18.96;77.62
23176;BME280;19910;42.652;23.332;2022-08-26T03:42:03;94260.91;;;18.97;77.06
23176;BME280;19910;42.652;23.332;2022-08-26T03:44:30;94260.13;;;18.97;76.49
23176;BME280;19910;42.652;23.332;2022-08-26T03:46:57;94269.53;;;18.92;76.86
23176;BME280;19910;42.652;23.332;2022-08-26T03:49:24;94266.38;;;18.94;76.39
23176;BME280;19910;42.652;23.332;2022-08-26T03:51:52;94260.91;;;19.04;76.51
23176;BME280;19910;42.652;23.332;2022-08-26T03:54:19;94264.84;;;19.07;76.40
23176;BME280;19910;42.652;23.332;2022-08-26T03:56:45;94262.50;;;19.12;76.48
23176;BME280;19910;42.652;23.332;2022-08-26T03:59:12;94264.06;;;19.17;74.62
23176;BME280;19910;42.652;23.332;2022-08-26T04:01:39;94256.22;;;19.23;74.69
23176;BME280;19910;42.652;23.332;2022-08-26T04:04:06;94260.16;;;19.36;74.32
23176;BME280;19910;42.652;23.332;2022-08-26T04:06:35;94264.06;;;19.35;72.85
23176;BME280;19910;42.652;23.332;2022-08-26T04:09:06;94259.34;;;19.28;73.36
23176;BME280;19910;42.652;23.332;2022-08-26T04:11:34;94260.16;;;19.46;72.87
23176;BME280;19910;42.652;23.332;2022-08-26T04:14:06;94255.84;;;19.60;73.11
23176;BME280;19910;42.652;23.332;2022-08-26T04:16:34;94258.59;;;19.67;74.09
23176;BME280;19910;42.652;23.332;2022-08-26T04:19:01;94255.44;;;19.68;74.20
23176;BME280;19910;42.652;23.332;2022-08-26T04:21:28;94251.53;;;19.62;74.43
23176;BME280;19910;42.652;23.332;2022-08-26T04:23:55;94254.69;;;19.61;74.39
23176;BME280;19910;42.652;23.332;2022-08-26T04:26:24;94251.91;;;19.43;74.56
23176;BME280;19910;42.652;23.332;2022-08-26T04:28:52;94250.72;;;19.44;74.30
23176;BME280;19910;42.652;23.332;2022-08-26T04:31:20;94261.75;;;19.51;73.94
23176;BME280;19910;42.652;23.332;2022-08-26T04:33:48;94261.34;;;19.56;73.97
23176;BME280;19910;42.652;23.332;2022-08-26T04:36:16;94251.53;;;19.48;73.83
23176;BME280;19910;42.652;23.332;2022-08-26T04:38:43;94253.13;;;19.67;72.58
23176;BME280;19910;42.652;23.332;2022-08-26T04:41:10;94251.50;;;19.83;72.07
23176;BME280;19910;42.652;23.332;2022-08-26T04:43:39;94258.53;;;20.06;71.70
23176;BME280;19910;42.652;23.332;2022-08-26T04:46:07;94262.44;;;20.12;71.21
23176;BME280;19910;42.652;23.332;2022-08-26T04:48:35;94260.03;;;20.28;70.28
23176;BME280;19910;42.652;23.332;2022-08-26T04:51:02;94263.97;;;20.34;69.50
23176;BME280;19910;42.652;23.332;2022-08-26T04:53:30;94255.31;;;20.39;69.50
23176;BME280;19910;42.652;23.332;2022-08-26T04:55:57;94261.59;;;20.40;69.87
23176;BME280;19910;42.652;23.332;2022-08-26T04:58:24;94254.50;;;20.46;69.36
23176;BME280;19910;42.652;23.332;2022-08-26T05:00:54;94263.81;;;20.70;69.40
23176;BME280;19910;42.652;23.332;2022-08-26T05:03:22;94259.75;;;20.96;69.47
23176;BME280;19910;42.652;23.332;2022-08-26T05:05:49;94258.03;;;21.19;68.92
23176;BME280;19910;42.652;23.332;2022-08-26T05:08:17;94260.41;;;21.17;69.13
23176;BME280;19910;42.652;23.332;2022-08-26T05:10:46;94255.16;;;21.37;68.96
23176;BME280;19910;42.652;23.332;2022-08-26T05:13:16;94255.53;;;21.43;67.85
23176;BME280;19910;42.652;23.332;2022-08-26T05:15:44;94265.81;;;21.35;67.13
23176;BME280;19910;42.652;23.332;2022-08-26T05:18:14;94264.13;;;21.48;66.55
23176;BME280;19910;42.652;23.332;2022-08-26T05:20:44;94257.03;;;21.47;66.28
23176;BME280;19910;42.652;23.332;2022-08-26T05:23:11;94258.66;;;21.89;64.62
23176;BME280;19910;42.652;23.332;2022-08-26T05:25:39;94264.66;;;22.22;64.85
23176;BME280;19910;42.652;23.332;2022-08-26T05:28:07;94271.28;;;22.28;64.21
23176;BME280;19910;42.652;23.332;2022-08-26T05:30:35;94265.94;;;22.48;64.07
23176;BME280;19910;42.652;23.332;2022-08-26T05:33:02;94265.16;;;22.47;62.57
23176;BME280;19910;42.652;23.332;2022-08-26T05:35:31;94273.44;;;22.47;63.26
23176;BME280;19910;42.652;23.332;2022-08-26T05:37:59;94265.84;;;22.21;63.09
23176;BME280;19910;42.652;23.332;2022-08-26T05:40:27;94270.34;;;22.42;63.57
23176;BME280;19910;42.652;23.332;2022-08-26T05:42:56;94272.91;;;22.59;63.59
23176;BME280;19910;42.652;23.332;2022-08-26T05:45:24;94278.16;;;22.50;63.20
23176;BME280;19910;42.652;23.332;2022-08-26T05:47:51;94273.97;;;22.35;63.06
23176;BME280;19910;42.652;23.332;2022-08-26T05:50:19;94271.59;;;22.00;63.82
23176;BME280;19910;42.652;23.332;2022-08-26T05:52:48;94269.94;;;22.06;64.42
23176;BME280;19910;42.652;23.332;2022-08-26T05:55:16;94269.66;;;22.34;63.99
23176;BME280;19910;42.652;23.332;2022-08-26T05:57:43;94273.97;;;22.35;63.87
23176;BME280;19910;42.652;23.332;2022-08-26T06:00:13;94274.75;;;21.94;64.23
23176;BME280;19910;42.652;23.332;2022-08-26T06:02:40;94276.13;;;22.17;65.01
23176;BME280;19910;42.652;23.332;2022-08-26T06:05:07;94285.50;;;22.26;64.41
23176;BME280;19910;42.652;23.332;2022-08-26T06:07:34;94285.25;;;22.48;64.40
23176;BME280;19910;42.652;23.332;2022-08-26T06:10:20;94279.13;;;22.33;64.00
23176;BME280;19910;42.652;23.332;2022-08-26T06:12:47;94287.13;;;22.24;63.52
23176;BME280;19910;42.652;23.332;2022-08-26T06:15:14;94282.09;;;22.49;62.99
23176;BME280;19910;42.652;23.332;2022-08-26T06:17:41;94278.28;;;22.40;62.75
23176;BME280;19910;42.652;23.332;2022-08-26T06:20:08;94289.41;;;22.29;64.53
23176;BME280;19910;42.652;23.332;2022-08-26T06:22:35;94278.03;;;22.27;64.27
23176;BME280;19910;42.652;23.332;2022-08-26T06:25:21;94286.03;;;22.52;63.50
23176;BME280;19910;42.652;23.332;2022-08-26T06:28:06;94291.47;;;22.55;62.62
23176;BME280;19910;42.652;23.332;2022-08-26T06:30:37;94285.84;;;22.66;63.35
23176;BME280;19910;42.652;23.332;2022-08-26T06:33:05;94284.25;;;22.68;61.88
23176;BME280;19910;42.652;23.332;2022-08-26T06:35:35;94292.16;;;22.66;60.79
23176;BME280;19910;42.652;23.332;2022-08-26T06:38:03;94291.03;;;22.94;61.58
23176;BME280;19910;42.652;23.332;2022-08-26T06:40:31;94299.16;;;23.35;60.94
23176;BME280;19910;42.652;23.332;2022-08-26T06:42:58;94306.69;;;23.62;60.10
23176;BME280;19910;42.652;23.332;2022-08-26T06:45:25;94291.25;;;23.88;59.81
23176;BME280;19910;42.652;23.332;2022-08-26T06:47:52;94301.88;;;23.66;60.14
23176;BME280;19910;42.652;23.332;2022-08-26T06:50:19;94296.34;;;23.66;60.78
23176;BME280;19910;42.652;23.332;2022-08-26T06:52:46;94292.63;;;23.76;59.90
23176;BME280;19910;42.652;23.332;2022-08-26T06:55:12;94292.69;;;23.96;60.28
23176;BME280;19910;42.652;23.332;2022-08-26T06:57:40;94297.78;;;24.21;59.77
23176;BME280;19910;42.652;23.332;2022-08-26T07:00:08;94297.56;;;24.35;58.62
23176;BME280;19910;42.652;23.332;2022-08-26T07:02:36;94292.00;;;24.35;59.05
23176;BME280;19910;42.652;23.332;2022-08-26T07:05:03;94292.22;;;24.24;57.35
23176;BME280;19910;42.652;23.332;2022-08-26T07:07:30;94291.31;;;24.31;58.46
23176;BME280;19910;42.652;23.332;2022-08-26T07:09:57;94293.31;;;24.50;57.32
23176;BME280;19910;42.652;23.332;2022-08-26T07:12:24;94301.25;;;24.48;58.01
23176;BME280;19910;42.652;23.332;2022-08-26T07:14:52;94295.94;;;24.77;58.16
23176;BME280;19910;42.652;23.332;2022-08-26T07:17:19;94295.19;;;25.32;56.64
23176;BME280;19910;42.652;23.332;2022-08-26T07:19:46;94296.69;;;25.37;54.11
23176;BME280;19910;42.652;23.332;2022-08-26T07:22:14;94299.75;;;25.59;53.64
23176;BME280;19910;42.652;23.332;2022-08-26T07:24:40;94294.94;;;25.95;53.90
23176;BME280;19910;42.652;23.332;2022-08-26T07:27:09;94299.53;;;26.02;53.49
23176;BME280;19910;42.652;23.332;2022-08-26T07:29:38;94291.34;;;26.27;53.68
23176;BME280;19910;42.652;23.332;2022-08-26T07:32:07;94294.75;;;26.35;53.19
23176;BME280;19910;42.652;23.332;2022-08-26T07:34:36;94301.31;;;26.25;51.53
23176;BME280;19910;42.652;23.332;2022-08-26T07:37:03;94294.91;;;26.28;52.79
23176;BME280;19910;42.652;23.332;2022-08-26T07:39:30;94296.31;;;26.36;52.71
23176;BME280;19910;42.652;23.332;2022-08-26T07:41:57;94291.25;;;26.47;52.42
23176;BME280;19910;42.652;23.332;2022-08-26T07:44:24;94299.44;;;26.05;52.39
23176;BME280;19910;42.652;23.332;2022-08-26T07:46:52;94299.41;;;26.38;51.76
23176;BME280;19910;42.652;23.332;2022-08-26T07:49:21;94290.19;;;26.57;53.39
23176;BME280;19910;42.652;23.332;2022-08-26T07:51:48;94309.56;;;26.12;52.42
23176;BME280;19910;42.652;23.332;2022-08-26T07:54:16;94299.25;;;26.45;50.57
23176;BME280;19910;42.652;23.332;2022-08-26T07:56:43;94301.53;;;26.34;51.04
23176;BME280;19910;42.652;23.332;2022-08-26T07:59:10;94287.63;;;26.92;48.00
23176;BME280;19910;42.652;23.332;2022-08-26T08:01:37;94294.84;;;27.18;47.77
23176;BME280;19910;42.652;23.332;2022-08-26T08:04:04;94303.94;;;27.06;48.23
23176;BME280;19910;42.652;23.332;2022-08-26T08:06:33;94291.69;;;28.30;45.93
23176;BME280;19910;42.652;23.332;2022-08-26T08:09:00;94303.56;;;28.56;45.69
23176;BME280;19910;42.652;23.332;2022-08-26T08:11:27;94291.59;;;29.12;44.74
23176;BME280;19910;42.652;23.332;2022-08-26T08:13:56;94294.34;;;28.81;44.38
23176;BME280;19910;42.652;23.332;2022-08-26T08:16:25;94289.78;;;29.18;44.87
23176;BME280;19910;42.652;23.332;2022-08-26T08:18:53;94292.53;;;29.09;44.70
23176;BME280;19910;42.652;23.332;2022-08-26T08:21:21;94296.13;;;28.75;44.73
23176;BME280;19910;42.652;23.332;2022-08-26T08:23:50;94296.97;;;27.90;45.88
23176;BME280;19910;42.652;23.332;2022-08-26T08:26:17;94294.22;;;28.50;44.95
23176;BME280;19910;42.652;23.332;2022-08-26T08:28:45;94290.13;;;28.42;45.36
23176;BME280;19910;42.652;23.332;2022-08-26T08:31:18;94293.13;;;28.82;43.81
23176;BME280;19910;42.652;23.332;2022-08-26T08:33:46;94296.59;;;29.17;43.80
23176;BME280;19910;42.652;23.332;2022-08-26T08:36:12;94291.78;;;29.70;43.78
23176;BME280;19910;42.652;23.332;2022-08-26T08:38:41;94293.53;;;29.77;42.07
23176;BME280;19910;42.652;23.332;2022-08-26T08:41:21;94288.22;;;29.69;42.27
23176;BME280;19910;42.652;23.332;2022-08-26T08:43:54;94286.13;;;29.92;42.27
23176;BME280;19910;42.652;23.332;2022-08-26T08:46:21;94285.97;;;29.95;42.24
23176;BME280;19910;42.652;23.332;2022-08-26T08:48:52;94281.59;;;29.85;40.40
23176;BME280;19910;42.652;23.332;2022-08-26T08:51:29;94283.53;;;29.66;41.57
23176;BME280;19910;42.652;23.332;2022-08-26T08:53:59;94275.53;;;29.78;41.46
23176;BME280;19910;42.652;23.332;2022-08-26T08:56:30;94278.13;;;29.10;42.46
23176;BME280;19910;42.652;23.332;2022-08-26T08:59:04;94281.78;;;28.63;40.85
23176;BME280;19910;42.652;23.332;2022-08-26T09:01:58;94273.47;;;28.51;39.96
23176;BME280;19910;42.652;23.332;2022-08-26T09:04:45;94272.47;;;29.01;38.57
23176;BME280;19910;42.652;23.332;2022-08-26T09:07:19;94271.22;;;29.24;40.06
23176;BME280;19910;42.652;23.332;2022-08-26T09:09:48;94274.34;;;28.13;41.72
23176;BME280;19910;42.652;23.332;2022-08-26T09:12:20;94266.50;;;28.34;40.94
23176;BME280;19910;42.652;23.332;2022-08-26T09:14:49;94272.38;;;28.83;39.86
23176;BME280;19910;42.652;23.332;2022-08-26T09:17:27;94267.84;;;28.42;39.12
23176;BME280;19910;42.652;23.332;2022-08-26T09:20:04;94263.53;;;29.06;38.57
23176;BME280;19910;42.652;23.332;2022-08-26T09:22:36;94264.50;;;28.90;40.75
23176;BME280;19910;42.652;23.332;2022-08-26T09:25:06;94265.47;;;27.93;44.17
23176;BME280;19910;42.652;23.332;2022-08-26T09:27:44;94268.97;;;27.72;42.61
23176;BME280;19910;42.652;23.332;2022-08-26T09:30:14;94265.34;;;28.44;41.72
23176;BME280;19910;42.652;23.332;2022-08-26T09:32:56;94256.41;;;28.49;40.16
23176;BME280;19910;42.652;23.332;2022-08-26T09:35:26;94253.28;;;29.34;40.80
23176;BME280;19910;42.652;23.332;2022-08-26T09:37:55;94264.72;;;29.27;38.78
23176;BME280;19910;42.652;23.332;2022-08-26T09:40:29;94258.44;;;29.76;36.21
23176;BME280;19910;42.652;23.332;2022-08-26T09:43:14;94256.59;;;29.82;35.29
23176;BME280;19910;42.652;23.332;2022-08-26T09:45:46;94262.78;;;30.17;34.97
23176;BME280;19910;42.652;23.332;2022-08-26T09:48:25;94253.34;;;29.43;34.62
23176;BME280;19910;42.652;23.332;2022-08-26T09:50:54;94261.31;;;29.23;32.26
23176;BME280;19910;42.652;23.332;2022-08-26T09:53:22;94257.94;;;29.68;33.04
23176;BME280;19910;42.652;23.332;2022-08-26T09:55:51;94250.31;;;29.99;32.96
23176;BME280;19910;42.652;23.332;2022-08-26T09:58:34;94250.81;;;30.16;32.67
23176;BME280;19910;42.652;23.332;2022-08-26T10:01:05;94262.41;;;29.04;34.43
23176;BME280;19910;42.652;23.332;2022-08-26T10:03:35;94243.19;;;29.67;33.41
23176;BME280;19910;42.652;23.332;2022-08-26T10:06:04;94235.28;;;30.24;33.45
23176;BME280;19910;42.652;23.332;2022-08-26T10:08:33;94248.84;;;29.86;32.10
23176;BME280;19910;42.652;23.332;2022-08-26T10:11:06;94241.78;;;30.03;33.95
23176;BME280;19910;42.652;23.332;2022-08-26T10:13:39;94245.09;;;29.40;32.92
23176;BME280;19910;42.652;23.332;2022-08-26T10:16:13;94238.09;;;29.35;33.12
23176;BME280;19910;42.652;23.332;2022-08-26T10:18:45;94232.19;;;30.13;34.49
23176;BME280;19910;42.652;23.332;2022-08-26T10:21:19;94237.94;;;30.28;33.60
23176;BME280;19910;42.652;23.332;2022-08-26T10:23:52;94239.81;;;29.73;33.10
23176;BME280;19910;42.652;23.332;2022-08-26T10:26:24;94239.97;;;28.85;34.58
23176;BME280;19910;42.652;23.332;2022-08-26T10:28:58;94240.75;;;28.64;35.67
23176;BME280;19910;42.652;23.332;2022-08-26T10:31:34;94245.38;;;28.45;35.30
23176;BME280;19910;42.652;23.332;2022-08-26T10:34:04;94231.41;;;29.02;33.25
23176;BME280;19910;42.652;23.332;2022-08-26T10:36:36;94237.84;;;28.89;34.78
23176;BME280;19910;42.652;23.332;2022-08-26T10:39:21;94243.53;;;28.29;34.64
23176;BME280;19910;42.652;23.332;2022-08-26T10:41:54;94237.13;;;28.07;35.29
23176;BME280;19910;42.652;23.332;2022-08-26T10:44:24;94229.47;;;28.89;35.83
23176;BME280;19910;42.652;23.332;2022-08-26T10:46:56;94241.97;;;29.07;34.49
23176;BME280;19910;42.652;23.332;2022-08-26T10:49:26;94234.16;;;29.54;34.06
23176;BME280;19910;42.652;23.332;2022-08-26T10:51:57;94225.84;;;29.63;34.27
23176;BME280;19910;42.652;23.332;2022-08-26T10:54:31;94224.41;;;29.99;32.59
23176;BME280;19910;42.652;23.332;2022-08-26T10:57:08;94222.25;;;30.12;33.40
23176;BME280;19910;42.652;23.332;2022-08-26T10:59:47;94220.88;;;29.67;34.28
23176;BME280;19910;42.652;23.332;2022-08-26T11:02:20;94222.16;;;29.14;33.29
23176;BME280;19910;42.652;23.332;2022-08-26T11:04:54;94223.66;;;28.96;34.57
23176;BME280;19910;42.652;23.332;2022-08-26T11:13:58;94223.66;;;28.06;34.07
23176;BME280;19910;42.652;23.332;2022-08-26T11:16:35;94223.84;;;28.24;33.98
23176;BME280;19910;42.652;23.332;2022-08-26T11:19:03;94226.53;;;28.15;34.67
23176;BME280;19910;42.652;23.332;2022-08-26T11:21:48;94228.22;;;28.12;34.85
23176;BME280;19910;42.652;23.332;2022-08-26T11:30:40;94212.47;;;27.84;34.51
23176;BME280;19910;42.652;23.332;2022-08-26T11:33:10;94217.50;;;28.23;36.28
23176;BME280;19910;42.652;23.332;2022-08-26T11:35:56;94212.41;;;28.44;34.72
23176;BME280;19910;42.652;23.332;2022-08-26T11:38:26;94203.59;;;28.11;33.78
23176;BME280;19910;42.652;23.332;2022-08-26T11:40:56;94198.53;;;28.31;34.70
23176;BME280;19910;42.652;23.332;2022-08-26T11:43:26;94207.53;;;28.35;34.42
23176;BME280;19910;42.652;23.332;2022-08-26T11:46:00;94206.38;;;28.23;35.61
23176;BME280;19910;42.652;23.332;2022-08-26T11:48:31;94199.38;;;28.41;34.74
23176;BME280;19910;42.652;23.332;2022-08-26T11:51:01;94204.19;;;28.62;35.44
23176;BME280;19910;42.652;23.332;2022-08-26T11:53:30;94216.41;;;28.08;32.63
23176;BME280;19910;42.652;23.332;2022-08-26T11:55:59;94208.56;;;27.81;33.32
23176;BME280;19910;42.652;23.332;2022-08-26T11:58:27;94204.94;;;28.06;34.90
23176;BME280;19910;42.652;23.332;2022-08-26T12:00:57;94197.16;;;28.36;32.97
23176;BME280;19910;42.652;23.332;2022-08-26T12:03:32;94188.09;;;28.66;32.27
23176;BME280;19910;42.652;23.332;2022-08-26T12:06:01;94189.16;;;28.81;34.24
23176;BME280;19910;42.652;23.332;2022-08-26T12:08:30;94191.41;;;28.95;33.44
23176;BME280;19910;42.652;23.332;2022-08-26T12:11:04;94189.09;;;29.03;32.50
23176;BME280;19910;42.652;23.332;2022-08-26T12:13:32;94185.53;;;29.03;33.23
23176;BME280;19910;42.652;23.332;2022-08-26T12:15:59;94181.19;;;29.02;32.13
23176;BME280;19910;42.652;23.332;2022-08-26T12:18:30;94177.47;;;28.95;32.90
23176;BME280;19910;42.652;23.332;2022-08-26T12:21:00;94168.69;;;29.06;32.99
23176;BME280;19910;42.652;23.332;2022-08-26T12:23:39;94177.06;;;28.62;32.34
23176;BME280;19910;42.652;23.332;2022-08-26T12:26:09;94176.81;;;28.48;32.43
23176;BME280;19910;42.652;23.332;2022-08-26T12:28:41;94176.69;;;28.29;31.96
23176;BME280;19910;42.652;23.332;2022-08-26T12:31:08;94163.34;;;28.68;32.50
23176;BME280;19910;42.652;23.332;2022-08-26T12:33:35;94174.75;;;28.61;32.45
23176;BME280;19910;42.652;23.332;2022-08-26T12:36:05;94155.84;;;28.56;32.18
23176;BME280;19910;42.652;23.332;2022-08-26T12:38:34;94166.19;;;28.55;32.22
23176;BME280;19910;42.652;23.332;2022-08-26T12:41:02;94161.13;;;28.63;32.52
23176;BME280;19910;42.652;23.332;2022-08-26T12:43:38;94155.72;;;28.90;33.45
23176;BME280;19910;42.652;23.332;2022-08-26T12:46:07;94157.63;;;28.93;32.92
23176;BME280;19910;42.652;23.332;2022-08-26T12:48:35;94169.97;;;28.83;31.42
23176;BME280;19910;42.652;23.332;2022-08-26T12:51:06;94169.53;;;28.72;31.93
23176;BME280;19910;42.652;23.332;2022-08-26T12:53:39;94164.94;;;28.78;31.89
23176;BME280;19910;42.652;23.332;2022-08-26T12:56:18;94177.72;;;28.45;31.27
23176;BME280;19910;42.652;23.332;2022-08-26T12:58:59;94170.22;;;28.33;31.64
23176;BME280;19910;42.652;23.332;2022-08-26T13:01:35;94165.03;;;28.44;31.73
23176;BME280;19910;42.652;23.332;2022-08-26T13:04:03;94167.88;;;28.53;33.03
23176;BME280;19910;42.652;23.332;2022-08-26T13:06:32;94175.53;;;28.40;32.35
23176;BME280;19910;42.652;23.332;2022-08-26T13:09:01;94165.63;;;28.39;32.42
23176;BME280;19910;42.652;23.332;2022-08-26T13:11:31;94165.53;;;28.29;32.36
23176;BME280;19910;42.652;23.332;2022-08-26T13:14:00;94153.34;;;28.14;33.09
23176;BME280;19910;42.652;23.332;2022-08-26T13:16:27;94151.94;;;28.32;33.05